Kezdőlap
METAR-TAF:

METAR-TAF

Repülőterek :

Port Hawkesbury, Új-Skócia, Kanada

földrajzi szélesség: 45-40N, földrajzi hosszúság: 061-23W, magasság: 114 m

Jelenlegi meteorológiai megfigyelések

A jelentés 26 perccel ezelõtt készült, 14:00 UTC
Nyugati szél 16 kt széllökések: 22 kt
Hőmérséklet -1°C
Páratartalom 86%
Légköri nyomás 1002 hPa
Látótávolság: 14.5 km
Borult 1600 lábon

METAR: CYPD 131400Z AUTO 27016G22KT 9SM OVC016 M01/M03 A2958 RMK ICG PAST HR SLP023

Idő: 10:26 (14:26 UTC)


TAF: hiányzik

Meteorológiai megfigyelések és előrejelzések több, mint 4000 repülőtéren (METAR és TAF jelentéseket).

A térképen piros és sárga pontok jelzik az elérhető meteorológiai állomásokat.

Mozgassa az egeret a pont fölött, hogy megjelenjen az állomás neve.

Azután kattintson az időjárási megfigyelések és előrejelzések megtekintéséhez.

A térkép megváltoztatása: kattintson a fekete keresztel jelölt zöld gombra ráközelítéshez, a vonallal jelölt zöld gombra távolításhoz, vagy a zöld nyilakra a szomszédos térképek eléréséhez.


METAR-TAF: